createdAt,value
2023-05-14T00:02:26.981Z,100888.59
2023-05-14T00:05:29.095Z,100873.75
2023-05-14T00:08:30.840Z,100866.66
2023-05-14T00:11:32.670Z,100875.44
2023-05-14T00:14:34.598Z,100877.19
2023-05-14T00:17:37.261Z,100861.53
2023-05-14T00:20:39.210Z,100871.16
2023-05-14T00:23:40.961Z,100866.81
2023-05-14T00:26:42.724Z,100859.84
2023-05-14T00:29:45.725Z,100866.00
2023-05-14T00:32:47.709Z,100857.41
2023-05-14T00:35:49.623Z,100830.47
2023-05-14T00:38:51.515Z,100864.41
2023-05-14T00:41:53.400Z,100866.16
2023-05-14T00:44:55.552Z,100854.84
2023-05-14T00:47:57.415Z,100841.88
2023-05-14T00:50:59.449Z,100868.88
2023-05-14T00:54:02.060Z,100862.72
2023-05-14T00:57:06.273Z,100858.38
2023-05-14T01:00:09.056Z,100859.19
2023-05-14T01:03:10.912Z,100856.59
2023-05-14T01:06:23.965Z,100858.38
2023-05-14T01:09:36.493Z,100841.03
2023-05-14T01:12:57.115Z,100863.56
2023-05-14T01:16:01.151Z,100879.31
2023-05-14T01:19:08.023Z,100867.16
2023-05-14T01:22:10.734Z,100866.41
2023-05-14T01:25:13.349Z,100857.75
2023-05-14T01:28:32.554Z,100869.94
2023-05-14T01:31:39.138Z,100853.34
2023-05-14T01:34:41.986Z,100851.72
2023-05-14T01:37:44.807Z,100840.44
2023-05-14T01:40:50.398Z,100839.66
2023-05-14T01:43:52.539Z,100851.03
2023-05-14T01:46:54.274Z,100846.78
2023-05-14T01:49:56.179Z,100841.63
2023-05-14T01:52:58.025Z,100847.72
2023-05-14T01:55:59.757Z,100849.53
2023-05-14T01:59:01.492Z,100845.19
2023-05-14T02:02:03.913Z,100850.34
2023-05-14T02:05:07.118Z,100843.38
2023-05-14T02:08:08.996Z,100836.25
2023-05-14T02:11:10.999Z,100833.69
2023-05-14T02:14:12.896Z,100836.38
2023-05-14T02:17:17.721Z,100816.50
2023-05-14T02:20:19.712Z,100823.50
2023-05-14T02:23:31.075Z,100830.38
2023-05-14T02:26:40.006Z,100831.31
2023-05-14T02:29:41.923Z,100815.69
2023-05-14T02:37:12.008Z,100815.66
2023-05-14T02:40:13.949Z,100819.16
2023-05-14T02:43:15.956Z,100837.50
2023-05-14T02:46:17.755Z,100819.97
2023-05-14T02:49:19.656Z,100824.31
2023-05-14T02:52:21.426Z,100792.13
2023-05-14T02:55:26.507Z,100822.53
2023-05-14T02:58:28.618Z,100801.66
2023-05-14T03:01:30.867Z,100823.38
2023-05-14T03:04:33.005Z,100805.13
2023-05-14T03:07:34.699Z,100820.81
2023-05-14T03:10:37.132Z,100815.66
2023-05-14T03:13:38.838Z,100725.16
2023-05-14T03:16:42.383Z,100809.56
2023-05-14T03:19:44.459Z,100814.75
2023-05-14T03:22:46.282Z,100758.25
2023-05-14T03:25:49.139Z,100779.19
2023-05-14T03:28:51.092Z,100811.38
2023-05-14T03:31:54.448Z,100804.38
2023-05-14T03:34:56.349Z,100792.13
2023-05-14T03:37:59.395Z,100802.53
2023-05-14T03:41:01.597Z,100807.75
2023-05-14T03:44:03.381Z,100807.72
2023-05-14T03:47:05.276Z,100806.75
2023-05-14T03:50:08.073Z,100795.41
2023-05-14T03:53:09.854Z,100813.59
2023-05-14T03:56:11.646Z,100814.41
2023-05-14T03:59:13.474Z,100791.72
2023-05-14T04:02:15.720Z,100802.88
2023-05-14T04:05:17.734Z,100798.53
2023-05-14T04:08:20.440Z,100802.13
2023-05-14T04:11:22.230Z,100798.63
2023-05-14T04:14:25.068Z,100814.34
2023-05-14T04:17:27.657Z,100811.69
2023-05-14T04:20:29.453Z,100814.22
2023-05-14T04:23:32.050Z,100785.44
2023-05-14T04:26:33.880Z,100805.28
2023-05-14T04:29:35.612Z,100812.16
2023-05-14T04:32:38.058Z,100794.63
2023-05-14T04:35:39.832Z,100798.88
2023-05-14T04:38:41.832Z,100790.03
2023-05-14T04:41:43.618Z,100636.13
2023-05-14T04:44:45.450Z,100795.81
2023-05-14T04:47:47.329Z,100780.13
2023-05-14T04:50:49.221Z,100774.81
2023-05-14T04:53:51.005Z,100779.81
2023-05-14T04:56:52.745Z,100789.13
2023-05-14T04:59:54.474Z,100790.56
2023-05-14T05:02:56.442Z,100775.53
2023-05-14T05:05:58.366Z,100790.84
2023-05-14T05:09:01.993Z,100787.16
2023-05-14T05:12:04.421Z,100780.44
2023-05-14T05:15:07.181Z,100773.16
2023-05-14T05:18:09.178Z,100770.88
2023-05-14T05:21:11.011Z,100771.28
2023-05-14T05:24:13.458Z,100779.53
2023-05-14T05:27:15.208Z,100765.84
2023-05-14T05:30:16.986Z,100782.47
2023-05-14T05:33:19.877Z,100768.66
2023-05-14T05:36:21.600Z,100778.59
2023-05-14T05:39:23.372Z,100774.44
2023-05-14T05:42:26.186Z,100776.25
2023-05-14T05:45:28.009Z,100737.72
2023-05-14T05:48:29.836Z,100754.84
2023-05-14T05:51:31.934Z,100757.28
2023-05-14T05:54:34.355Z,100751.09
2023-05-14T05:57:36.176Z,100759.56
2023-05-14T06:00:38.121Z,100762.66
2023-05-14T06:03:39.933Z,100742.75
2023-05-14T06:06:42.029Z,100746.81
2023-05-14T06:09:43.788Z,100736.41
2023-05-14T06:12:45.741Z,100755.47
2023-05-14T06:15:47.860Z,100749.69
2023-05-14T06:18:49.674Z,100745.72
2023-05-14T06:21:51.396Z,100750.81
2023-05-14T06:24:53.256Z,100754.28
2023-05-14T06:27:55.030Z,100755.81
2023-05-14T06:30:56.978Z,100746.03
2023-05-14T06:33:58.741Z,100726.47
2023-05-14T06:37:02.803Z,100729.72
2023-05-14T06:40:05.740Z,100729.94
2023-05-14T06:43:07.631Z,100716.16
2023-05-14T06:46:09.377Z,100715.47
2023-05-14T06:49:11.124Z,100711.28
2023-05-14T06:52:12.970Z,100692.81
2023-05-14T06:55:14.782Z,100692.16
2023-05-14T06:58:16.650Z,100695.97
2023-05-14T07:01:18.451Z,100695.50
2023-05-14T07:04:20.347Z,100674.25
2023-05-14T07:07:24.014Z,100694.78
2023-05-14T07:10:26.430Z,100692.09
2023-05-14T07:13:28.865Z,100693.66
2023-05-14T07:16:30.970Z,100696.81
2023-05-14T07:19:32.802Z,100685.25
2023-05-14T07:22:34.517Z,100675.69
2023-05-14T07:25:36.427Z,100670.91
2023-05-14T07:28:38.173Z,100678.38
2023-05-14T07:31:40.007Z,100684.84
2023-05-14T07:34:41.886Z,100679.22
2023-05-14T07:37:44.200Z,100676.44
2023-05-14T07:40:46.062Z,100663.63
2023-05-14T07:43:47.986Z,100652.19
2023-05-14T07:46:49.823Z,100660.69
2023-05-14T07:49:56.180Z,100665.06
2023-05-14T07:52:58.345Z,100646.03
2023-05-14T07:56:00.279Z,100677.78
2023-05-14T07:59:02.174Z,100648.16
2023-05-14T08:02:04.047Z,100642.31
2023-05-14T08:05:06.488Z,100656.31
2023-05-14T08:08:08.206Z,100645.50
2023-05-14T08:11:10.036Z,100654.50
2023-05-14T08:14:11.975Z,100633.47
2023-05-14T08:17:13.827Z,100647.53
2023-05-14T08:20:15.701Z,100654.81
2023-05-14T08:23:52.608Z,100579.53
2023-05-14T08:26:54.635Z,100653.97
2023-05-14T08:29:58.491Z,100630.34
2023-05-14T08:33:00.699Z,100554.09
2023-05-14T08:36:03.633Z,100620.88
2023-05-14T08:39:08.165Z,100623.44
2023-05-14T08:42:15.722Z,100624.53
2023-05-14T08:45:19.147Z,100631.91
2023-05-14T08:48:23.080Z,100618.72
2023-05-14T08:51:27.733Z,100585.59
2023-05-14T08:54:32.579Z,100633.09
2023-05-14T08:57:34.975Z,100624.41
2023-05-14T09:00:37.689Z,100629.44
2023-05-14T09:03:43.037Z,100630.09
2023-05-14T09:06:49.880Z,100631.69
2023-05-14T09:09:53.724Z,100617.66
2023-05-14T09:12:56.291Z,100597.25
2023-05-14T09:15:59.138Z,100606.47
2023-05-14T09:19:01.028Z,100580.72
2023-05-14T09:22:12.602Z,100561.44
2023-05-14T09:25:14.411Z,100557.00
2023-05-14T09:28:17.731Z,100599.09
2023-05-14T09:31:19.745Z,100591.81
2023-05-14T09:34:32.804Z,100573.41
2023-05-14T09:37:36.733Z,100594.84
2023-05-14T09:40:38.561Z,100587.28
2023-05-14T09:43:40.252Z,100590.72
2023-05-14T09:46:42.280Z,100573.66
2023-05-14T09:49:45.151Z,100572.19
2023-05-14T09:52:46.847Z,100578.34
2023-05-14T09:55:49.417Z,100564.38
2023-05-14T09:58:51.230Z,100562.38
2023-05-14T10:01:54.926Z,100573.28
2023-05-14T10:05:02.702Z,100538.31
2023-05-14T10:08:27.614Z,100567.84
2023-05-14T10:11:33.679Z,100543.22
2023-05-14T10:14:47.369Z,100518.69
2023-05-14T10:17:55.830Z,100535.28
2023-05-14T10:21:05.680Z,100518.47
2023-05-14T10:24:08.425Z,100526.66
2023-05-14T10:27:10.610Z,100497.59
2023-05-14T10:30:13.058Z,100474.00
2023-05-14T10:33:16.845Z,100509.47
2023-05-14T10:36:18.931Z,100501.19
2023-05-14T10:39:20.755Z,100428.81
2023-05-14T10:42:23.627Z,100458.88
2023-05-14T10:45:25.575Z,100483.69
2023-05-14T10:48:27.746Z,100487.09
2023-05-14T10:51:30.260Z,100452.78
2023-05-14T10:54:35.811Z,100469.25
2023-05-14T10:57:40.108Z,100458.28
2023-05-14T11:00:42.050Z,100410.97
2023-05-14T11:03:46.525Z,100411.44
2023-05-14T11:06:48.659Z,100410.47
2023-05-14T11:09:51.495Z,100433.66
2023-05-14T11:12:53.206Z,100448.22
2023-05-14T11:15:56.649Z,100452.63
2023-05-14T11:19:03.788Z,100445.06
2023-05-14T11:22:05.737Z,100443.59
2023-05-14T11:25:10.139Z,100444.34
2023-05-14T11:28:12.140Z,100435.53
2023-05-14T11:31:31.763Z,100429.31
2023-05-14T11:34:38.729Z,100412.09
2023-05-14T11:37:40.749Z,100406.19
2023-05-14T11:40:43.148Z,100381.16
2023-05-14T11:43:44.897Z,100374.94
2023-05-14T11:46:57.248Z,100378.00
2023-05-14T11:50:00.887Z,100383.25
2023-05-14T11:53:02.696Z,100360.66
2023-05-14T11:56:04.957Z,100357.34
2023-05-14T11:59:07.935Z,100370.28
2023-05-14T12:02:14.949Z,100361.38
2023-05-14T12:05:16.782Z,100327.53
2023-05-14T12:08:32.148Z,100338.97
2023-05-14T12:11:36.384Z,100344.94
2023-05-14T12:14:42.910Z,100355.41
2023-05-14T12:17:50.717Z,100339.16
2023-05-14T12:20:52.570Z,100341.22
2023-05-14T12:24:00.184Z,100328.84
2023-05-14T12:27:03.159Z,100317.13
2023-05-14T12:30:20.614Z,100329.31
2023-05-14T12:33:26.696Z,100308.81
2023-05-14T12:36:28.770Z,100302.88
2023-05-14T12:39:33.813Z,100320.03
2023-05-14T12:42:35.817Z,100313.91
2023-05-14T12:45:37.686Z,100302.66
2023-05-14T12:48:39.498Z,100297.88
2023-05-14T12:51:41.207Z,100293.16
2023-05-14T12:54:43.507Z,100287.44
2023-05-14T12:57:45.474Z,100270.69
2023-05-14T13:00:47.271Z,100302.91
2023-05-14T13:03:49.296Z,100315.13
2023-05-14T13:06:51.118Z,100306.09
2023-05-14T13:09:52.923Z,100263.22
2023-05-14T13:12:56.378Z,100286.03
2023-05-14T13:15:58.132Z,100288.50
2023-05-14T13:18:59.901Z,100296.53
2023-05-14T13:22:01.670Z,100276.91
2023-05-14T13:25:03.554Z,100272.00
2023-05-14T13:28:05.739Z,100272.25
2023-05-14T13:31:12.788Z,100256.38
2023-05-14T13:34:14.842Z,100274.81
2023-05-14T13:37:16.777Z,100268.34
2023-05-14T13:40:18.695Z,100275.44
2023-05-14T13:43:20.528Z,100208.75
2023-05-14T13:46:22.380Z,100269.94
2023-05-14T13:49:24.120Z,100249.66
2023-05-14T13:52:26.582Z,100261.28
2023-05-14T13:55:28.339Z,100254.66
2023-05-14T13:58:30.492Z,100242.91
2023-05-14T14:01:32.283Z,100253.75
2023-05-14T14:04:34.254Z,100249.84
2023-05-14T14:07:36.039Z,100254.47
2023-05-14T14:10:40.911Z,100235.19
2023-05-14T14:13:43.802Z,100250.22
2023-05-14T14:16:47.464Z,100242.06
2023-05-14T14:19:49.237Z,100231.31
2023-05-14T14:22:51.012Z,100217.25
2023-05-14T14:25:52.757Z,100238.63
2023-05-14T14:28:54.656Z,100217.41
2023-05-14T14:31:56.567Z,100232.59
2023-05-14T14:34:58.433Z,100225.16
2023-05-14T14:38:00.124Z,100215.25
2023-05-14T14:41:07.100Z,100204.09
2023-05-14T14:44:08.876Z,100221.56
2023-05-14T14:47:10.645Z,100219.34
2023-05-14T14:50:13.321Z,100223.03
2023-05-14T14:53:15.100Z,100211.91
2023-05-14T14:56:16.844Z,100213.63
2023-05-14T14:59:18.565Z,100198.22
2023-05-14T15:02:20.437Z,100181.16
2023-05-14T15:05:22.309Z,100191.16
2023-05-14T15:08:28.211Z,100198.84
2023-05-14T15:11:30.224Z,100190.91
2023-05-14T15:14:31.924Z,100186.84
2023-05-14T15:17:33.907Z,100075.06
2023-05-14T15:20:35.803Z,100161.81
2023-05-14T15:23:37.602Z,100139.94
2023-05-14T15:26:39.732Z,100158.41
2023-05-14T15:29:41.631Z,100163.88
2023-05-14T15:32:44.617Z,100157.78
2023-05-14T15:35:46.417Z,100152.66
2023-05-14T15:38:48.342Z,100150.09
2023-05-14T15:41:50.147Z,100161.00
2023-05-14T15:44:51.921Z,100157.00
2023-05-14T15:47:53.892Z,100167.81
2023-05-14T15:50:55.934Z,100175.75
2023-05-14T15:53:57.821Z,100170.94
2023-05-14T15:56:59.668Z,100174.59
2023-05-14T16:00:01.804Z,100164.81
2023-05-14T16:03:06.402Z,100180.75
2023-05-14T16:06:08.272Z,100185.72
2023-05-14T16:09:10.151Z,100185.94
2023-05-14T16:12:12.550Z,100112.00
2023-05-14T16:15:14.322Z,100197.00
2023-05-14T16:18:16.410Z,100192.06
2023-05-14T16:21:18.194Z,100215.03
2023-05-14T16:24:19.986Z,100209.06
2023-05-14T16:27:25.068Z,100209.72
2023-05-14T16:30:26.975Z,100196.91
2023-05-14T16:33:28.770Z,100196.16
2023-05-14T16:36:31.446Z,100195.63
2023-05-14T16:39:33.185Z,100205.56
2023-05-14T16:42:34.891Z,100213.66
2023-05-14T16:45:37.493Z,100194.59
2023-05-14T16:48:39.420Z,100186.09
2023-05-14T16:51:43.244Z,100182.56
2023-05-14T16:54:45.045Z,100186.66
2023-05-14T16:57:46.812Z,100195.00
2023-05-14T17:00:48.472Z,100184.81
2023-05-14T17:03:50.209Z,100191.09
2023-05-14T17:06:54.518Z,100176.16
2023-05-14T17:09:56.379Z,100143.72
2023-05-14T17:12:58.079Z,100150.34
2023-05-14T17:16:00.634Z,100157.56
2023-05-14T17:19:02.487Z,100166.78
2023-05-14T17:22:05.959Z,100165.25
2023-05-14T17:25:08.784Z,100177.31
2023-05-14T17:28:10.664Z,100165.59
2023-05-14T17:31:12.407Z,100158.84
2023-05-14T17:34:14.224Z,100145.03
2023-05-14T17:37:16.263Z,100129.72
2023-05-14T17:40:18.102Z,100149.06
2023-05-14T17:43:19.900Z,100167.41
2023-05-14T17:46:21.657Z,100168.44
2023-05-14T17:49:23.463Z,100161.88
2023-05-14T17:52:25.419Z,100155.56
2023-05-14T17:55:27.315Z,100118.88
2023-05-14T17:58:29.047Z,100147.31
2023-05-14T18:01:31.005Z,100151.59
2023-05-14T18:04:32.926Z,100145.44
2023-05-14T18:07:36.217Z,100157.22
2023-05-14T18:10:46.054Z,100158.97
2023-05-14T18:13:47.757Z,100154.00
2023-05-14T18:16:50.299Z,100152.81
2023-05-14T18:19:54.991Z,100166.63
2023-05-14T18:22:56.807Z,100161.81
2023-05-14T18:25:59.398Z,100155.78
2023-05-14T18:29:01.282Z,100160.78
2023-05-14T18:32:03.254Z,100146.38
2023-05-14T18:35:07.885Z,100150.66
2023-05-14T18:38:11.917Z,100151.44
2023-05-14T18:41:13.699Z,100157.53
2023-05-14T18:44:15.400Z,100166.28
2023-05-14T18:47:17.118Z,100146.59
2023-05-14T18:50:21.422Z,100148.50
2023-05-14T18:53:23.229Z,100117.97
2023-05-14T18:56:25.746Z,100159.47
2023-05-14T18:59:27.591Z,100148.16
2023-05-14T19:02:29.381Z,100153.56
2023-05-14T19:05:31.339Z,100157.41
2023-05-14T19:08:33.243Z,100150.72
2023-05-14T19:11:35.054Z,100145.50
2023-05-14T19:14:36.824Z,100164.78
2023-05-14T19:17:38.878Z,100160.06
2023-05-14T19:20:40.722Z,100163.41
2023-05-14T19:23:42.645Z,100149.34
2023-05-14T19:26:44.716Z,100170.91
2023-05-14T19:29:46.765Z,100165.25
2023-05-14T19:32:49.356Z,100153.66
2023-05-14T19:35:51.338Z,100146.69
2023-05-14T19:38:53.049Z,100123.94
2023-05-14T19:41:54.840Z,100156.22
2023-05-14T19:44:56.577Z,100094.63
2023-05-14T19:47:58.376Z,100137.66
2023-05-14T19:51:00.287Z,100120.72
2023-05-14T19:54:02.087Z,100119.09
2023-05-14T19:57:04.428Z,100121.94
2023-05-14T20:00:08.880Z,100121.47
2023-05-14T20:03:12.286Z,100129.59
2023-05-14T20:06:17.519Z,100139.38
2023-05-14T20:09:20.135Z,100121.69
2023-05-14T20:12:21.922Z,100147.38
2023-05-14T20:15:23.684Z,100139.94
2023-05-14T20:18:25.921Z,100143.31
2023-05-14T20:21:27.623Z,100142.06
2023-05-14T20:24:29.468Z,100119.97
2023-05-14T20:27:32.749Z,100109.41
2023-05-14T20:30:37.624Z,100053.34
2023-05-14T20:33:39.560Z,100102.41
2023-05-14T20:36:41.898Z,100107.53
2023-05-14T20:39:43.973Z,100107.00
2023-05-14T20:42:45.812Z,100111.09
2023-05-14T20:45:47.601Z,100082.91
2023-05-14T20:48:49.572Z,100059.56
2023-05-14T20:51:51.346Z,100080.34
2023-05-14T20:54:53.548Z,100055.69
2023-05-14T20:57:55.578Z,100093.78
2023-05-14T21:00:58.585Z,100081.28
2023-05-14T21:04:01.680Z,100048.50
2023-05-14T21:07:06.886Z,100082.69
2023-05-14T21:10:09.305Z,100042.03
2023-05-14T21:13:11.240Z,100009.41
2023-05-14T21:16:13.214Z,100044.06
2023-05-14T21:19:15.537Z,100041.78
2023-05-14T21:22:18.814Z,100027.91
2023-05-14T21:25:20.659Z,100048.34
2023-05-14T21:28:22.685Z,100041.25
2023-05-14T21:31:24.423Z,100026.72
2023-05-14T21:34:26.316Z,100022.59
2023-05-14T21:37:28.138Z,100025.72
2023-05-14T21:40:30.015Z,100043.03
2023-05-14T21:43:31.750Z,100050.22
2023-05-14T21:46:33.872Z,100023.84
2023-05-14T21:49:35.826Z,100046.56
2023-05-14T21:52:38.491Z,100015.25
2023-05-14T21:55:40.530Z,100019.03
2023-05-14T21:58:42.345Z,100008.72
2023-05-14T22:04:48.740Z,99990.31
2023-05-14T22:07:50.678Z,99997.41
2023-05-14T22:10:52.392Z,99988.06
2023-05-14T22:13:54.246Z,99948.69
2023-05-14T22:16:57.704Z,99969.28
2023-05-14T22:19:59.500Z,99960.22
2023-05-14T22:23:01.315Z,99968.59
2023-05-14T22:26:03.914Z,99988.25
2023-05-14T22:29:05.757Z,99970.47
2023-05-14T22:32:08.277Z,99956.09
2023-05-14T22:35:10.281Z,99987.59
2023-05-14T22:38:13.656Z,99969.69
2023-05-14T22:41:17.587Z,99945.50
2023-05-14T22:44:19.404Z,99926.16
2023-05-14T22:47:21.184Z,99954.22
2023-05-14T22:50:23.220Z,99947.75
2023-05-14T22:53:25.325Z,99962.41
2023-05-14T22:56:28.050Z,99959.69
2023-05-14T22:59:29.821Z,99907.44
2023-05-14T23:02:31.801Z,99928.03
2023-05-14T23:05:33.537Z,99917.56
2023-05-14T23:08:35.310Z,99884.59
2023-05-14T23:11:37.134Z,99897.19
2023-05-14T23:14:38.923Z,99895.91
2023-05-14T23:17:40.813Z,99858.41
2023-05-14T23:20:45.318Z,99891.69
2023-05-14T23:23:48.560Z,99893.88
2023-05-14T23:26:50.379Z,99921.66
2023-05-14T23:29:52.161Z,99931.00
2023-05-14T23:32:54.186Z,99930.53
2023-05-14T23:35:56.081Z,99919.75
2023-05-14T23:38:58.942Z,99924.38
2023-05-14T23:42:00.933Z,99942.66
2023-05-14T23:45:02.693Z,99904.53
2023-05-14T23:48:05.006Z,99916.47
2023-05-14T23:51:06.788Z,99889.97
2023-05-14T23:54:08.524Z,99877.16
2023-05-14T23:57:13.002Z,99875.09
